Nearby METAR Reports

 

KPMD - Palmdale, California, USA
Distance from station: NNE 12mi, 19km
Updated: Sat, 31-Jul-2021 2:53pm PDT
Clear
Clear
 Wind from varies
Wind: varies 3 mph , 6 km/h
Temperature: 97°F , 36°C
Dew Point: 43°F , 6°C
Humidity: 16%
Barometer: 30.05 inHg , 1017.6 hPa
Clouds: Clear
Visibility: 10 miles , 16 km
2021/07/31 21:53 KPMD 312153Z AUTO VRB03KT 10SM CLR 36/06 A3005 RMK AO2 SLP139 T03610056
KWJF - Lancaster/Fox, California, USA
Distance from station: N 17mi, 27km
Updated: Sat, 31-Jul-2021 2:56pm PDT
Clear
Clear
 Wind from WSW
Wind: WSW 14 mph , 22 km/h, Gust: 18 mph , 30 km/h
Temperature: 100°F , 38°C
Dew Point: 39°F , 4°C
Humidity: 12%
Barometer: 30.03 inHg , 1016.9 hPa
Clouds: Clear
Visibility: 10 miles , 16 km
2021/07/31 21:56 KWJF 312156Z 24012G16KT 10SM CLR 38/04 A3003 RMK AO2 SLP140 T03780044
 
KMWS - Mount Wilson, California, USA
Distance from station: SSE 18mi, 30km
Updated: Wed, 13-May-2015 6:45am PDT
NOT Current

 Wind from S
Wind: S 3 mph , 6 km/h, Gust: 5 mph , 7 km/h
Temperature: 43°F , 6°C
Dew Point: -0°F , -18°C
Humidity: 16%
2015/05/13 13:45 KMWS 131345Z 18003G04KT 06/M18 RMK SNOW DEPTH 1.00
KWHP - La / Whiteman, California, USA
Distance from station: SW 21mi, 34km
Updated: Sat, 31-Jul-2021 3:00pm PDT
Clear
Clear
 Wind from calm
Wind: Calm
Temperature: 91°F , 33°C
Dew Point: 48°F , 9°C
Humidity: 23%
Barometer: 30.03 inHg , 1016.9 hPa
Clouds: Clear
Visibility: 10 miles , 16 km
2021/07/31 22:00 KWHP 312200Z 00000KT 10SM SKC 33/09 A3003
 
KBUR - Burbank, California, USA
Distance from station: SSW 22mi, 35km
Updated: Sat, 31-Jul-2021 2:53pm PDT
Clear
Clear
 Wind from S
Wind: S 12 mph , 19 km/h
Temperature: 91°F , 33°C
Dew Point: 50°F , 10°C
Humidity: 24%
Barometer: 29.99 inHg , 1015.6 hPa
Clouds: Clear
Visibility: 10 miles , 16 km
2021/07/31 21:53 KBUR 312153Z 18010KT 10SM CLR 33/10 A2999 RMK AO2 SLP139 T03280100 $
KVNY - Van Nuys, California, USA
Distance from station: SW 25mi, 40km
Updated: Sat, 31-Jul-2021 2:51pm PDT
Clear
Clear
 Wind from varies
Wind: varies 3 mph , 6 km/h
Temperature: 97°F , 36°C
Dew Point: 48°F , 9°C
Humidity: 19%
Barometer: 29.98 inHg , 1015.2 hPa
Clouds: Clear
Visibility: 10 miles , 16 km
2021/07/31 21:51 KVNY 312151Z VRB03KT 10SM CLR 36/09 A2998 RMK AO2 SLP140 T03560089
 
KEDW - Edwards Afb, California, USA
Distance from station: NNE 33mi, 53km
Updated: Sat, 31-Jul-2021 2:58pm PDT
Few Clouds
Few Clouds
 Wind from SSW
Wind: SSW 7 mph , 11 km/h
Temperature: 100°F , 38°C
Dew Point: 46°F , 8°C
Humidity: 16%
Barometer: 30.01 inHg , 1016.3 hPa
Clouds: Few Clouds
Visibility: 60 miles , 96 km
Cloud details: Few Clouds 6000 ft
Few Clouds 18000 ft
2021/07/31 21:58 KEDW 312158Z 21006KT 60SM FEW060 FEW180 38/08 A3001 RMK AO2A SLP132 T03760084
KSMO - Santa Monica, California, USA
Distance from station: SSW 35mi, 57km
Updated: Sat, 31-Jul-2021 2:51pm PDT
Clear
Clear
 Wind from SW
Wind: SW 9 mph , 15 km/h
Temperature: 70°F , 21°C
Dew Point: 59°F , 15°C
Humidity: 69%
Barometer: 30.01 inHg , 1016.3 hPa
Clouds: Clear
Visibility: 10 miles , 16 km
2021/07/31 21:51 KSMO 312151Z 23008KT 10SM CLR 21/15 A3001 RMK AO2 SLP161 T02110150
 
KLAX - Los Angeles, California, USA
Distance from station: SSW 39mi, 63km
Updated: Sat, 31-Jul-2021 2:53pm PDT
Partly cloudy
Partly cloudy
 Wind from W
Wind: W 18 mph , 30 km/h
Temperature: 68°F , 20°C
Dew Point: 59°F , 15°C
Humidity: 73%
Barometer: 30.02 inHg , 1016.6 hPa
Clouds: Partly cloudy
Visibility: 10 miles , 16 km
Cloud details: Few Clouds 200 ft
Few Clouds 600 ft
Partly cloudy 10000 ft
Partly cloudy 28000 ft
2021/07/31 21:53 KLAX 312153Z 26016KT 10SM FEW002 FEW006 SCT100 SCT280 20/15 A3002 RMK AO2 SLP162 CB DSNT E AND SE TCU DSNT N T02000150
KMHV - Mojave, California, USA
Distance from station: N 41mi, 66km
Updated: Sat, 31-Jul-2021 3:00pm PDT
Clear
Clear
 Wind from varies
Wind: varies 6 mph , 9 km/h
Temperature: 95°F , 35°C
Dew Point: 43°F , 6°C
Humidity: 16%
Barometer: 30.07 inHg , 1018.3 hPa
Clouds: Clear
Visibility: 10 miles , 16 km
2021/07/31 22:00 KMHV 312200Z AUTO VRB05KT 10SM CLR 35/06 A3007 RMK A01 LTG DSNT N AND E
 
KFUL - Fullerton, California, USA
Distance from station: SSE 44mi, 70km
Updated: Sat, 31-Jul-2021 2:53pm PDT
Few Clouds
Few Clouds
 Wind from W
Wind: W 12 mph , 19 km/h
Temperature: 88°F , 31°C
Heat Index: 88°F , 31°C
Dew Point: 61°F , 16°C
Humidity: 40%
Barometer: 29.98 inHg , 1015.2 hPa
Clouds: Few Clouds
Visibility: 10 miles , 16 km
Cloud details: Few Clouds 7000 ft
Few Clouds 25000 ft
2021/07/31 21:53 KFUL 312153Z 26010KT 10SM FEW070 FEW250 31/16 A2998 RMK AO2 SLP151 CB DSNT NE-SE T03060156
KONT - Ontario, California, USA
Distance from station: SE 45mi, 72km
Updated: Sat, 31-Jul-2021 2:53pm PDT
Few Clouds
Few Clouds
 Wind from W
Wind: W 17 mph , 28 km/h
Temperature: 99°F , 37°C
Dew Point: 55°F , 13°C
Humidity: 24%
Barometer: 29.98 inHg , 1015.2 hPa
Clouds: Few Clouds
Visibility: 10 miles , 16 km
Cloud details: Few Clouds 12000 ft
Few Clouds 25000 ft
2021/07/31 21:53 KONT 312153Z 26015KT 10SM FEW120 FEW250 37/13 A2998 RMK AO2 SLP131 CB DSNT NE-E AND SE TCU DSNT E T03720133
 
KLGB - Long Beach, California, USA
Distance from station: S 46mi, 74km
Updated: Sat, 31-Jul-2021 2:53pm PDT
Clear
Clear
 Wind from WNW
Wind: WNW 13 mph , 20 km/h
Temperature: 79°F , 26°C
Dew Point: 55°F , 13°C
Humidity: 45%
Barometer: 30.00 inHg , 1015.9 hPa
Clouds: Clear
Visibility: 10 miles , 16 km
2021/07/31 21:53 KLGB 312153Z 29011KT 10SM CLR 26/13 A3000 RMK AO2 SLP159 T02610133
KVCV - Victorville, California, USA
Distance from station: E 46mi, 74km
Updated: Sat, 31-Jul-2021 2:47pm PDT
Clear
Clear
 Wind from calm
Wind: Calm
Temperature: 95°F , 35°C
Dew Point: 48°F , 9°C
Humidity: 20%
Barometer: 30.09 inHg , 1019 hPa
Clouds: Clear
Visibility: 10 miles , 16 km
2021/07/31 21:47 KVCV 312147Z AUTO 00000KT 10SM CLR 35/09 A3009 RMK DA5800
 
KTSP - Tehachapi, California, USA
Distance from station: NNW 48mi, 77km
Updated: Sat, 31-Jul-2021 3:15pm PDT
Mostly cloudy
Mostly cloudy
 Wind from N
Wind: N 9 mph , 15 km/h
Temperature: 91°F , 33°C
Dew Point: 46°F , 8°C
Humidity: 21%
Barometer: 30.18 inHg , 1022 hPa
Clouds: Mostly cloudy
Visibility: 10 miles , 16 km
Cloud details: Mostly cloudy 10000 ft
2021/07/31 22:15 KTSP 312215Z AUTO 35008KT 330V030 10SM BKN100 33/08 A3018 RMK AO2